Capitol Logistics 33




ZSPD
Shanghai Pudong International Airport
Shanghai, CN
PANC
Ted Stevens Anchorage International Airport
Anchorage, US

Activity Log

Date Flight Route Aircraft Duration
No Flights Yet

Route Details

Aircraft Information
Group: Large Widebodies
Types: B744,MD11
Route Data
Demand: H
Distance: 3740nm
Duration: 7h 26m
Recm'd Route: LAMEN A593 SADLI Y590 BEDAR Y591 FUE Y23 OOITA Y40 MYE Y33 KOHWA Y12 NAKTU Y88 DAIGO Y886 ADNAP R591 ASPIN R591 AAMYY R591 HAMND NEELL6
Origin Wx: ZSPD 252300Z 01003MPS 7000 NSC 07/05 Q1025 NOSIG
Dest. Wx: PANC 252253Z 17004KT 5SM R07R/6000VP6000FT -SN BR BKN022 BKN036 M01/M03 A3007 RMK AO2 SLP184 P0000 T10061033
Notes:

Financial History
Total Freight: 0lbs
Average Load: 0lbs/flt
Fuel Used: 0lbs
Avg. Fuel Used: 0lbs/flt
Fuel Expense: $0
Avg. Fuel Expense: $0
Avg. Fuel Cost: $0/lbs
Total Gross Income: $0
Pilot Pay: $0
Total Expenses: $0
Total Revenue: $0
Average Revenue: $0